createdAt,value
2019-02-09T00:00:13.125Z,2.30
2019-02-09T00:02:17.232Z,2.47
2019-02-09T00:04:21.329Z,2.45
2019-02-09T00:06:25.440Z,1.92
2019-02-09T00:08:29.652Z,2.67
2019-02-09T00:10:33.764Z,2.80
2019-02-09T00:12:37.980Z,1.92
2019-02-09T00:14:41.798Z,2.90
2019-02-09T00:16:45.905Z,2.90
2019-02-09T00:18:50.112Z,2.75
2019-02-09T00:20:54.208Z,2.50
2019-02-09T00:22:58.093Z,2.50
2019-02-09T00:25:02.235Z,2.17
2019-02-09T00:27:06.066Z,2.62
2019-02-09T00:29:10.243Z,2.55
2019-02-09T00:31:14.356Z,2.67
2019-02-09T00:33:18.462Z,2.55
2019-02-09T00:35:22.805Z,2.65
2019-02-09T00:37:26.634Z,3.40
2019-02-09T00:39:32.606Z,2.83
2019-02-09T00:41:37.148Z,2.33
2019-02-09T00:43:41.264Z,2.10
2019-02-09T00:45:45.382Z,2.75
2019-02-09T00:47:49.586Z,3.10
2019-02-09T00:49:53.711Z,2.47
2019-02-09T00:51:57.814Z,2.33
2019-02-09T00:54:01.920Z,2.90
2019-02-09T00:56:06.134Z,2.80
2019-02-09T00:58:10.829Z,2.75
2019-02-09T01:00:26.538Z,2.95
2019-02-09T01:02:30.345Z,2.87
2019-02-09T01:04:34.174Z,2.50
2019-02-09T01:06:39.772Z,2.67
2019-02-09T01:08:43.908Z,2.92
2019-02-09T01:10:48.122Z,3.87
2019-02-09T01:12:51.925Z,3.10
2019-02-09T01:14:55.762Z,3.05
2019-02-09T01:16:59.576Z,3.60
2019-02-09T01:19:03.732Z,3.70
2019-02-09T01:21:07.954Z,3.35
2019-02-09T01:23:12.156Z,3.42
2019-02-09T01:25:16.587Z,3.60
2019-02-09T01:27:20.687Z,3.30
2019-02-09T01:29:24.486Z,3.12
2019-02-09T01:31:28.697Z,3.45
2019-02-09T01:33:36.199Z,3.70
2019-02-09T01:35:40.074Z,4.37
2019-02-09T01:37:44.427Z,3.98
2019-02-09T01:39:48.529Z,4.00
2019-02-09T01:41:52.653Z,4.20
2019-02-09T01:43:56.850Z,3.85
2019-02-09T01:46:00.956Z,3.80
2019-02-09T01:48:05.494Z,4.33
2019-02-09T01:50:12.628Z,3.67
2019-02-09T01:52:16.784Z,4.10
2019-02-09T01:54:20.607Z,3.92
2019-02-09T01:56:24.788Z,5.25
2019-02-09T01:58:28.682Z,4.30
2019-02-09T02:00:34.708Z,4.40
2019-02-09T02:02:38.780Z,4.28
2019-02-09T02:04:42.666Z,5.58
2019-02-09T02:06:46.780Z,4.78
2019-02-09T02:08:50.860Z,4.05
2019-02-09T02:10:55.103Z,4.70
2019-02-09T02:12:59.417Z,4.58
2019-02-09T02:15:04.743Z,4.30
2019-02-09T02:17:11.148Z,4.87
2019-02-09T02:19:15.322Z,4.47
2019-02-09T02:21:19.152Z,4.97
2019-02-09T02:23:25.632Z,5.22
2019-02-09T02:25:30.421Z,4.75
2019-02-09T02:27:34.530Z,4.45
2019-02-09T02:29:38.653Z,5.05
2019-02-09T02:31:42.552Z,4.42
2019-02-09T02:33:46.672Z,4.92
2019-02-09T02:35:50.860Z,4.92
2019-02-09T02:37:56.939Z,4.75
2019-02-09T02:40:01.034Z,4.17
2019-02-09T02:42:05.443Z,5.12
2019-02-09T02:44:09.778Z,4.60
2019-02-09T02:46:14.085Z,5.87
2019-02-09T02:48:17.894Z,4.70
2019-02-09T02:50:24.146Z,4.65
2019-02-09T02:52:28.255Z,4.75
2019-02-09T02:54:32.374Z,4.97
2019-02-09T02:56:36.585Z,4.90
2019-02-09T02:58:40.710Z,5.30
2019-02-09T03:00:44.807Z,4.60
2019-02-09T03:02:49.015Z,4.83
2019-02-09T03:04:53.127Z,4.97
2019-02-09T03:06:57.221Z,4.78
2019-02-09T03:09:01.341Z,4.72
2019-02-09T03:11:05.155Z,5.17
2019-02-09T03:13:09.258Z,4.95
2019-02-09T03:15:16.449Z,4.55
2019-02-09T03:17:20.250Z,5.05
2019-02-09T03:19:24.440Z,5.12
2019-02-09T03:21:28.569Z,5.25
2019-02-09T03:23:32.670Z,5.35
2019-02-09T03:25:36.893Z,5.20
2019-02-09T03:27:40.993Z,5.55
2019-02-09T03:29:44.812Z,6.00
2019-02-09T03:31:49.057Z,6.12
2019-02-09T03:33:53.114Z,5.97
2019-02-09T03:35:57.211Z,5.80
2019-02-09T03:38:01.349Z,5.65
2019-02-09T03:40:14.256Z,6.15
2019-02-09T03:42:19.391Z,6.33
2019-02-09T03:44:25.227Z,5.92
2019-02-09T03:46:29.345Z,6.40
2019-02-09T03:48:33.464Z,6.08
2019-02-09T03:50:37.297Z,5.95
2019-02-09T03:52:41.177Z,6.67
2019-02-09T03:54:45.271Z,5.65
2019-02-09T03:56:50.203Z,5.53
2019-02-09T03:58:54.417Z,5.83
2019-02-09T04:00:59.316Z,6.20
2019-02-09T04:03:03.764Z,5.50
2019-02-09T04:05:10.217Z,6.00
2019-02-09T04:07:14.365Z,5.92
2019-02-09T04:09:18.170Z,5.97
2019-02-09T04:11:21.987Z,5.90
2019-02-09T04:13:26.169Z,5.83
2019-02-09T04:15:30.378Z,5.55
2019-02-09T04:17:34.479Z,5.30
2019-02-09T04:19:38.588Z,4.80
2019-02-09T04:21:44.341Z,5.42
2019-02-09T04:23:48.149Z,5.50
2019-02-09T04:25:52.052Z,5.83
2019-02-09T04:27:55.876Z,6.10
2019-02-09T04:30:00.067Z,5.35
2019-02-09T04:32:06.971Z,5.92
2019-02-09T04:34:11.049Z,6.12
2019-02-09T04:36:15.253Z,5.15
2019-02-09T04:38:19.368Z,5.62
2019-02-09T04:40:28.352Z,5.80
2019-02-09T04:42:35.373Z,5.70
2019-02-09T04:44:39.474Z,3.45
2019-02-09T04:46:43.275Z,2.80
2019-02-09T04:48:47.394Z,2.47
2019-02-09T04:50:51.211Z,2.55
2019-02-09T04:52:55.831Z,1.98
2019-02-09T04:55:03.217Z,1.25
2019-02-09T04:57:07.317Z,1.30
2019-02-09T04:59:11.149Z,2.08
2019-02-09T05:01:15.253Z,2.30
2019-02-09T05:03:19.974Z,2.25
2019-02-09T05:05:27.193Z,1.80
2019-02-09T05:07:30.652Z,2.33
2019-02-09T05:09:34.466Z,1.90
2019-02-09T05:11:38.266Z,2.17
2019-02-09T05:13:42.464Z,2.52
2019-02-09T05:15:46.584Z,2.22
2019-02-09T05:17:50.879Z,2.05
2019-02-09T05:19:54.699Z,2.70
2019-02-09T05:21:58.795Z,2.65
2019-02-09T05:24:04.106Z,2.60
2019-02-09T05:26:08.242Z,2.83
2019-02-09T05:28:12.349Z,2.62
2019-02-09T05:30:21.689Z,2.45
2019-02-09T05:32:28.978Z,2.70
2019-02-09T05:34:36.770Z,3.10
2019-02-09T05:36:40.577Z,2.83
2019-02-09T05:38:44.667Z,2.60
2019-02-09T05:40:48.804Z,3.02
2019-02-09T05:42:53.002Z,3.37
2019-02-09T05:44:57.112Z,3.40
2019-02-09T05:47:01.241Z,3.55
2019-02-09T05:49:05.338Z,4.10
2019-02-09T05:51:09.233Z,4.37
2019-02-09T05:53:13.343Z,3.80
2019-02-09T05:55:20.478Z,4.00
2019-02-09T05:57:24.258Z,4.70
2019-02-09T05:59:28.441Z,4.57
2019-02-09T06:01:32.754Z,4.60
2019-02-09T06:03:36.884Z,4.97
2019-02-09T06:05:40.881Z,5.87
2019-02-09T06:07:45.000Z,4.40
2019-02-09T06:09:49.096Z,4.55
2019-02-09T06:11:52.904Z,4.37
2019-02-09T06:13:58.682Z,3.95
2019-02-09T06:16:04.671Z,3.62
2019-02-09T06:18:08.818Z,3.77
2019-02-09T06:20:24.599Z,4.12
2019-02-09T06:22:28.721Z,3.92
2019-02-09T06:24:32.539Z,3.12
2019-02-09T06:26:36.622Z,3.37
2019-02-09T06:28:40.732Z,2.95
2019-02-09T06:30:44.814Z,3.12
2019-02-09T06:32:50.177Z,3.05
2019-02-09T06:34:53.967Z,3.00
2019-02-09T06:36:57.800Z,2.47
2019-02-09T06:39:01.895Z,3.00
2019-02-09T06:41:06.131Z,2.90
2019-02-09T06:43:10.224Z,2.58
2019-02-09T06:45:17.301Z,2.77
2019-02-09T06:47:21.402Z,3.05
2019-02-09T06:49:25.206Z,3.02
2019-02-09T06:51:31.190Z,2.67
2019-02-09T06:53:35.390Z,3.50
2019-02-09T06:55:39.504Z,3.00
2019-02-09T06:57:43.708Z,3.40
2019-02-09T06:59:47.912Z,3.40
2019-02-09T07:01:52.022Z,3.20
2019-02-09T07:03:56.135Z,3.40
2019-02-09T07:05:59.963Z,3.90
2019-02-09T07:08:03.856Z,4.12
2019-02-09T07:10:14.093Z,3.42
2019-02-09T07:12:18.210Z,3.15
2019-02-09T07:14:22.332Z,3.35
2019-02-09T07:16:26.435Z,3.20
2019-02-09T07:18:30.640Z,3.10
2019-02-09T07:20:34.950Z,3.72
2019-02-09T07:22:39.064Z,3.30
2019-02-09T07:24:42.903Z,2.98
2019-02-09T07:26:47.086Z,3.12
2019-02-09T07:28:50.895Z,3.98
2019-02-09T07:30:55.107Z,3.45
2019-02-09T07:33:00.262Z,3.22
2019-02-09T07:35:05.907Z,2.70
2019-02-09T07:37:09.746Z,3.12
2019-02-09T07:39:13.992Z,3.50
2019-02-09T07:41:18.104Z,3.40
2019-02-09T07:43:22.225Z,3.27
2019-02-09T07:45:29.091Z,3.77
2019-02-09T07:47:33.406Z,2.02
2019-02-09T07:49:37.622Z,3.37
2019-02-09T07:51:43.633Z,3.83
2019-02-09T07:53:47.676Z,5.83
2019-02-09T07:55:53.123Z,3.92
2019-02-09T07:57:57.438Z,6.72
2019-02-09T08:00:01.550Z,3.67
2019-02-09T08:02:07.034Z,2.22
2019-02-09T08:04:11.035Z,3.67
2019-02-09T08:06:15.222Z,5.05
2019-02-09T08:08:19.062Z,3.42
2019-02-09T08:10:31.926Z,2.90
2019-02-09T08:12:36.050Z,2.47
2019-02-09T08:14:39.892Z,2.47
2019-02-09T08:16:43.828Z,2.62
2019-02-09T08:18:47.956Z,2.50
2019-02-09T08:20:53.770Z,3.17
2019-02-09T08:22:59.810Z,2.00
2019-02-09T08:25:04.702Z,3.40
2019-02-09T08:27:08.808Z,4.92
2019-02-09T08:29:12.918Z,2.77
2019-02-09T08:31:17.128Z,5.10
2019-02-09T08:33:21.069Z,4.42
2019-02-09T08:35:25.251Z,4.30
2019-02-09T08:37:29.162Z,4.55
2019-02-09T08:39:33.362Z,3.55
2019-02-09T08:41:37.480Z,7.25
2019-02-09T08:43:41.315Z,2.77
2019-02-09T08:45:45.549Z,5.05
2019-02-09T08:47:49.814Z,2.47
2019-02-09T08:49:54.018Z,3.15
2019-02-09T08:51:58.128Z,3.58
2019-02-09T08:54:01.946Z,3.58
2019-02-09T08:56:06.126Z,2.60
2019-02-09T08:58:09.939Z,3.72
2019-02-09T09:00:19.488Z,3.45
2019-02-09T09:02:26.666Z,2.75
2019-02-09T09:04:30.880Z,3.65
2019-02-09T09:06:35.698Z,3.10
2019-02-09T09:08:39.822Z,2.70
2019-02-09T09:10:43.728Z,3.17
2019-02-09T09:12:47.953Z,3.10
2019-02-09T09:14:52.048Z,2.30
2019-02-09T09:16:55.879Z,2.95
2019-02-09T09:18:59.764Z,3.17
2019-02-09T09:21:06.760Z,2.15
2019-02-09T09:23:10.830Z,2.35
2019-02-09T09:25:15.551Z,1.95
2019-02-09T09:27:19.362Z,3.20
2019-02-09T09:29:23.686Z,4.80
2019-02-09T09:31:27.890Z,2.83
2019-02-09T09:33:32.114Z,2.17
2019-02-09T09:35:36.353Z,2.98
2019-02-09T09:37:40.636Z,2.15
2019-02-09T09:39:44.741Z,2.90
2019-02-09T09:41:48.852Z,3.80
2019-02-09T09:43:52.712Z,6.10
2019-02-09T09:45:56.937Z,3.25
2019-02-09T09:48:01.495Z,3.42
2019-02-09T09:50:08.688Z,4.87
2019-02-09T09:52:12.567Z,2.30
2019-02-09T09:54:16.693Z,2.35
2019-02-09T09:56:20.693Z,2.50
2019-02-09T09:58:24.818Z,4.83
2019-02-09T10:00:29.737Z,2.92
2019-02-09T10:02:36.560Z,2.58
2019-02-09T10:04:39.796Z,2.20
2019-02-09T10:06:43.622Z,2.92
2019-02-09T10:08:47.811Z,3.02
2019-02-09T10:10:51.927Z,3.33
2019-02-09T10:12:56.035Z,3.40
2019-02-09T10:15:00.253Z,3.42
2019-02-09T10:17:04.367Z,4.42
2019-02-09T10:19:10.203Z,3.10
2019-02-09T10:21:14.041Z,3.17
2019-02-09T10:23:18.227Z,3.37
2019-02-09T10:25:22.183Z,2.87
2019-02-09T10:27:26.358Z,2.27
2019-02-09T10:29:32.579Z,2.60
2019-02-09T10:31:36.015Z,1.95
2019-02-09T10:33:40.215Z,2.05
2019-02-09T10:35:44.321Z,2.55
2019-02-09T10:37:48.285Z,2.33
2019-02-09T10:39:52.455Z,2.45
2019-02-09T10:41:56.553Z,2.75
2019-02-09T10:44:03.046Z,2.10
2019-02-09T10:46:07.121Z,1.52
2019-02-09T10:48:10.993Z,3.12
2019-02-09T10:50:18.482Z,2.10
2019-02-09T10:52:22.731Z,2.17
2019-02-09T10:54:26.844Z,2.00
2019-02-09T10:56:31.068Z,2.67
2019-02-09T10:58:35.165Z,4.90
2019-02-09T11:00:44.831Z,2.72
2019-02-09T11:02:52.286Z,3.90
2019-02-09T11:04:54.657Z,1.60
2019-02-09T11:06:58.873Z,2.62
2019-02-09T11:09:03.097Z,2.77
2019-02-09T11:11:06.983Z,2.40
2019-02-09T11:13:11.303Z,2.58
2019-02-09T11:15:18.431Z,2.37
2019-02-09T11:17:22.630Z,2.35
2019-02-09T11:19:26.825Z,2.40
2019-02-09T11:21:30.631Z,1.95
2019-02-09T11:23:34.725Z,2.72
2019-02-09T11:25:38.935Z,2.60
2019-02-09T11:27:43.635Z,2.20
2019-02-09T11:29:47.783Z,3.58
2019-02-09T11:31:51.994Z,2.90
2019-02-09T11:33:56.216Z,2.90
2019-02-09T11:36:00.314Z,2.65
2019-02-09T11:38:04.882Z,2.35
2019-02-09T11:40:23.790Z,2.77
2019-02-09T11:42:27.907Z,2.42
2019-02-09T11:44:32.103Z,3.30
2019-02-09T11:46:36.239Z,2.30
2019-02-09T11:48:40.125Z,2.87
2019-02-09T11:50:44.348Z,3.47
2019-02-09T11:52:48.629Z,2.92
2019-02-09T11:54:52.571Z,3.27
2019-02-09T11:56:56.475Z,2.20
2019-02-09T11:59:00.277Z,2.90
2019-02-09T12:01:03.873Z,3.07
2019-02-09T12:03:14.815Z,2.50
2019-02-09T12:05:13.727Z,3.02
2019-02-09T12:07:17.627Z,2.30
2019-02-09T12:09:21.542Z,2.87
2019-02-09T12:11:25.136Z,3.03
2019-02-09T12:13:29.047Z,3.20
2019-02-09T12:15:37.661Z,3.00
2019-02-09T12:17:41.562Z,2.77
2019-02-09T12:19:45.095Z,3.60
2019-02-09T12:21:48.635Z,3.30
2019-02-09T12:23:56.701Z,6.10
2019-02-09T12:26:00.572Z,3.80
2019-02-09T12:28:06.127Z,4.20
2019-02-09T12:30:12.964Z,3.70
2019-02-09T12:32:16.783Z,2.57
2019-02-09T12:34:20.591Z,2.90
2019-02-09T12:36:24.503Z,2.30
2019-02-09T12:38:28.398Z,2.73
2019-02-09T12:40:33.946Z,2.37
2019-02-09T12:42:37.745Z,4.00
2019-02-09T12:44:41.656Z,2.50
2019-02-09T12:46:45.565Z,2.50
2019-02-09T12:48:49.377Z,2.58
2019-02-09T12:50:52.917Z,2.77
2019-02-09T12:52:57.119Z,2.73
2019-02-09T12:55:00.807Z,2.37
2019-02-09T12:57:04.787Z,2.30
2019-02-09T12:59:14.712Z,2.00
2019-02-09T13:01:14.541Z,2.42
2019-02-09T13:03:30.988Z,2.47
2019-02-09T13:05:29.830Z,2.25
2019-02-09T13:07:35.571Z,2.05
2019-02-09T13:09:39.476Z,3.40
2019-02-09T13:11:43.278Z,2.10
2019-02-09T13:13:47.183Z,1.93
2019-02-09T13:15:51.285Z,2.77
2019-02-09T13:17:55.089Z,2.27
2019-02-09T13:19:58.626Z,2.70
2019-02-09T13:22:02.153Z,5.03
2019-02-09T13:24:06.088Z,2.30
2019-02-09T13:26:09.996Z,2.50
2019-02-09T13:28:13.898Z,3.23
2019-02-09T13:30:28.787Z,3.10
2019-02-09T13:32:32.299Z,2.53
2019-02-09T13:34:36.159Z,4.80
2019-02-09T13:36:39.963Z,2.40
2019-02-09T13:38:43.773Z,2.60
2019-02-09T13:40:47.679Z,1.93
2019-02-09T13:42:51.326Z,2.63
2019-02-09T13:44:55.176Z,2.00
2019-02-09T13:46:58.970Z,2.00
2019-02-09T13:49:02.499Z,2.97
2019-02-09T13:51:06.389Z,2.60
2019-02-09T13:53:10.303Z,3.00
2019-02-09T13:55:15.821Z,2.20
2019-02-09T13:57:19.939Z,2.08
2019-02-09T13:59:23.773Z,2.20
2019-02-09T14:01:27.953Z,2.50
2019-02-09T14:03:31.478Z,2.53
2019-02-09T14:05:35.769Z,2.83
2019-02-09T14:07:39.683Z,2.80
2019-02-09T14:09:43.786Z,3.10
2019-02-09T14:11:47.686Z,3.13
2019-02-09T14:13:52.740Z,2.57
2019-02-09T14:15:56.280Z,2.30
2019-02-09T14:18:01.654Z,2.70
2019-02-09T14:20:08.244Z,2.62
2019-02-09T14:22:12.142Z,2.70
2019-02-09T14:24:16.038Z,3.27
2019-02-09T14:26:19.566Z,2.40
2019-02-09T14:28:24.456Z,3.47
2019-02-09T14:30:30.428Z,2.57
2019-02-09T14:32:33.968Z,2.80
2019-02-09T14:34:37.828Z,3.13
2019-02-09T14:36:41.738Z,2.77
2019-02-09T14:38:45.262Z,2.90
2019-02-09T14:40:49.138Z,2.93
2019-02-09T14:42:52.756Z,3.30
2019-02-09T14:44:56.629Z,3.33
2019-02-09T14:47:00.426Z,4.20
2019-02-09T14:49:04.551Z,5.03
2019-02-09T14:51:08.438Z,3.57
2019-02-09T14:53:12.625Z,3.50
2019-02-09T14:55:27.466Z,3.55
2019-02-09T14:57:31.627Z,2.50
2019-02-09T14:59:35.442Z,2.43
2019-02-09T15:01:39.340Z,2.83
2019-02-09T15:03:43.240Z,2.80
2019-02-09T15:05:47.046Z,3.03
2019-02-09T15:07:50.673Z,8.03
2019-02-09T15:09:54.562Z,2.80
2019-02-09T15:11:58.361Z,3.70
2019-02-09T15:14:02.208Z,3.02
2019-02-09T15:16:14.852Z,3.10
2019-02-09T15:18:20.578Z,3.02
2019-02-09T15:20:33.544Z,2.35
2019-02-09T15:22:37.395Z,2.72
2019-02-09T15:24:41.557Z,2.70
2019-02-09T15:26:45.402Z,2.92
2019-02-09T15:28:49.607Z,3.00
2019-02-09T15:30:53.778Z,2.80
2019-02-09T15:32:57.894Z,2.80
2019-02-09T15:35:02.013Z,3.12
2019-02-09T15:37:06.112Z,3.02
2019-02-09T15:39:10.448Z,2.80
2019-02-09T15:41:14.439Z,3.87
2019-02-09T15:43:18.550Z,2.67
2019-02-09T15:45:23.342Z,3.07
2019-02-09T15:47:27.588Z,3.27
2019-02-09T15:49:31.692Z,3.85
2019-02-09T15:51:35.594Z,3.17
2019-02-09T15:53:39.917Z,3.37
2019-02-09T15:55:46.983Z,2.80
2019-02-09T15:57:51.309Z,9.15
2019-02-09T15:59:55.145Z,9.50
2019-02-09T16:01:58.969Z,11.83
2019-02-09T16:04:03.171Z,11.57
2019-02-09T16:06:07.241Z,8.80
2019-02-09T16:08:11.465Z,3.72
2019-02-09T16:10:20.701Z,4.40
2019-02-09T16:12:24.796Z,3.67
2019-02-09T16:14:29.043Z,2.98
2019-02-09T16:16:33.121Z,2.65
2019-02-09T16:18:36.930Z,3.77
2019-02-09T16:20:41.131Z,3.17
2019-02-09T16:22:45.346Z,2.95
2019-02-09T16:24:49.201Z,3.35
2019-02-09T16:26:53.376Z,5.40
2019-02-09T16:28:57.582Z,3.95
2019-02-09T16:31:03.313Z,3.35
2019-02-09T16:33:07.428Z,3.05
2019-02-09T16:35:14.298Z,3.52
2019-02-09T16:37:18.414Z,2.83
2019-02-09T16:39:22.622Z,9.20
2019-02-09T16:41:26.446Z,4.95
2019-02-09T16:43:30.265Z,2.75
2019-02-09T16:45:38.263Z,3.30
2019-02-09T16:47:42.443Z,3.92
2019-02-09T16:49:46.541Z,4.12
2019-02-09T16:51:50.677Z,3.67
2019-02-09T16:53:54.507Z,3.08
2019-02-09T16:55:58.693Z,3.20
2019-02-09T16:58:02.993Z,3.72
2019-02-09T17:00:15.763Z,2.90
2019-02-09T17:02:19.578Z,3.33
2019-02-09T17:04:23.727Z,2.80
2019-02-09T17:06:27.548Z,6.42
2019-02-09T17:08:31.381Z,5.65
2019-02-09T17:10:35.537Z,3.77
2019-02-09T17:12:39.438Z,4.00
2019-02-09T17:14:43.668Z,3.83
2019-02-09T17:16:47.771Z,2.55
2019-02-09T17:18:51.886Z,2.87
2019-02-09T17:20:56.111Z,3.20
2019-02-09T17:23:00.229Z,3.33
2019-02-09T17:25:06.030Z,2.50
2019-02-09T17:27:09.964Z,3.33
2019-02-09T17:29:13.787Z,3.17
2019-02-09T17:31:17.875Z,3.85
2019-02-09T17:33:22.112Z,2.50
2019-02-09T17:35:27.000Z,3.55
2019-02-09T17:37:31.232Z,2.60
2019-02-09T17:39:35.479Z,2.33
2019-02-09T17:41:41.288Z,2.67
2019-02-09T17:43:45.404Z,2.80
2019-02-09T17:46:01.426Z,3.00
2019-02-09T17:48:06.022Z,2.67
2019-02-09T17:50:14.215Z,2.65
2019-02-09T17:52:18.435Z,2.70
2019-02-09T17:54:22.255Z,2.67
2019-02-09T17:56:26.437Z,3.42
2019-02-09T17:58:30.961Z,2.62
2019-02-09T18:00:36.706Z,2.75
2019-02-09T18:02:40.826Z,2.62
2019-02-09T18:04:48.583Z,2.30
2019-02-09T18:06:50.591Z,2.52
2019-02-09T18:08:56.235Z,3.25
2019-02-09T18:11:00.443Z,3.17
2019-02-09T18:13:05.840Z,3.45
2019-02-09T18:15:13.165Z,3.15
2019-02-09T18:17:17.375Z,2.98
2019-02-09T18:19:21.511Z,3.62
2019-02-09T18:21:25.599Z,2.52
2019-02-09T18:23:29.707Z,3.20
2019-02-09T18:25:33.525Z,2.95
2019-02-09T18:27:42.740Z,2.87
2019-02-09T18:29:52.679Z,3.02
2019-02-09T18:32:01.110Z,3.00
2019-02-09T18:34:07.345Z,2.95
2019-02-09T18:36:15.533Z,2.70
2019-02-09T18:38:27.417Z,3.22
2019-02-09T18:40:39.581Z,3.42
2019-02-09T18:42:43.675Z,3.77
2019-02-09T18:44:47.875Z,3.02
2019-02-09T18:46:51.995Z,3.22
2019-02-09T18:48:56.200Z,4.53
2019-02-09T18:51:00.419Z,3.77
2019-02-09T18:53:04.405Z,3.25
2019-02-09T18:55:11.621Z,4.78
2019-02-09T18:57:15.719Z,4.37
2019-02-09T18:59:19.927Z,5.10
2019-02-09T19:01:23.821Z,3.30
2019-02-09T19:03:27.945Z,3.27
2019-02-09T19:05:32.157Z,4.20
2019-02-09T19:07:36.262Z,5.00
2019-02-09T19:09:40.394Z,3.87
2019-02-09T19:11:44.693Z,4.12
2019-02-09T19:13:49.113Z,3.80
2019-02-09T19:15:53.216Z,4.87
2019-02-09T19:17:58.930Z,4.05
2019-02-09T19:20:02.759Z,4.08
2019-02-09T19:22:06.983Z,4.78
2019-02-09T19:24:11.109Z,5.47
2019-02-09T19:26:15.207Z,5.55
2019-02-09T19:28:19.339Z,4.58
2019-02-09T19:30:25.012Z,4.53
2019-02-09T19:32:29.166Z,5.92
2019-02-09T19:34:33.353Z,4.10
2019-02-09T19:36:37.195Z,4.05
2019-02-09T19:38:41.406Z,3.92
2019-02-09T19:40:45.531Z,4.85
2019-02-09T19:42:50.658Z,4.50
2019-02-09T19:44:54.481Z,4.95
2019-02-09T19:46:58.671Z,3.83
2019-02-09T19:49:02.882Z,4.40
2019-02-09T19:51:06.980Z,4.30
2019-02-09T19:53:10.893Z,3.47
2019-02-09T19:55:17.554Z,5.15
2019-02-09T19:57:21.680Z,5.00
2019-02-09T19:59:25.552Z,4.10
2019-02-09T20:01:29.796Z,4.70
2019-02-09T20:03:33.893Z,4.00
2019-02-09T20:05:38.114Z,3.60
2019-02-09T20:07:42.233Z,4.20
2019-02-09T20:09:46.436Z,4.80
2019-02-09T20:11:50.277Z,4.17
2019-02-09T20:13:54.447Z,4.03
2019-02-09T20:15:58.581Z,3.80
2019-02-09T20:18:02.776Z,4.35
2019-02-09T20:20:12.621Z,4.17
2019-02-09T20:22:16.454Z,4.50
2019-02-09T20:24:20.635Z,3.72
2019-02-09T20:26:24.852Z,3.25
2019-02-09T20:28:29.059Z,4.92
2019-02-09T20:30:41.375Z,3.83
2019-02-09T20:32:45.350Z,3.77
2019-02-09T20:34:49.504Z,3.55
2019-02-09T20:36:53.348Z,4.47
2019-02-09T20:39:04.344Z,4.97
2019-02-09T20:41:04.839Z,4.33
2019-02-09T20:43:11.133Z,3.65
2019-02-09T20:45:16.089Z,4.28
2019-02-09T20:47:20.297Z,5.07
2019-02-09T20:49:24.537Z,4.30
2019-02-09T20:51:28.723Z,3.72
2019-02-09T20:53:32.835Z,5.30
2019-02-09T20:55:36.956Z,4.78
2019-02-09T20:57:42.456Z,4.45
2019-02-09T20:59:46.791Z,4.72
2019-02-09T21:01:51.001Z,4.28
2019-02-09T21:03:55.210Z,3.95
2019-02-09T21:05:59.340Z,3.77
2019-02-09T21:08:03.623Z,3.58
2019-02-09T21:10:16.558Z,4.33
2019-02-09T21:12:20.664Z,4.08
2019-02-09T21:14:24.865Z,3.83
2019-02-09T21:16:28.994Z,4.53
2019-02-09T21:18:37.318Z,3.85
2019-02-09T21:20:41.503Z,3.72
2019-02-09T21:22:45.808Z,3.33
2019-02-09T21:24:49.936Z,3.17
2019-02-09T21:26:53.774Z,4.00
2019-02-09T21:28:57.958Z,3.40
2019-02-09T21:31:02.062Z,3.85
2019-02-09T21:33:07.090Z,3.83
2019-02-09T21:35:12.946Z,3.30
2019-02-09T21:37:17.054Z,3.30
2019-02-09T21:39:21.284Z,4.03
2019-02-09T21:41:25.384Z,3.98
2019-02-09T21:43:29.482Z,3.02
2019-02-09T21:45:33.693Z,3.45
2019-02-09T21:47:37.595Z,4.08
2019-02-09T21:49:41.732Z,3.42
2019-02-09T21:51:45.933Z,3.52
2019-02-09T21:53:50.038Z,3.92
2019-02-09T21:55:53.853Z,3.67
2019-02-09T21:57:58.053Z,3.40
2019-02-09T22:00:02.168Z,3.90
2019-02-09T22:02:06.058Z,3.30
2019-02-09T22:04:10.172Z,3.20
2019-02-09T22:06:13.994Z,3.12
2019-02-09T22:08:20.011Z,3.50
2019-02-09T22:10:30.434Z,4.08
2019-02-09T22:12:31.920Z,3.80
2019-02-09T22:14:36.193Z,3.40
2019-02-09T22:16:40.394Z,3.60
2019-02-09T22:18:44.281Z,3.33
2019-02-09T22:20:52.916Z,2.80
2019-02-09T22:22:54.736Z,3.90
2019-02-09T22:24:58.858Z,4.12
2019-02-09T22:27:03.157Z,3.77
2019-02-09T22:29:07.484Z,3.22
2019-02-09T22:31:21.552Z,3.35
2019-02-09T22:33:24.691Z,3.55
2019-02-09T22:35:26.107Z,2.95
2019-02-09T22:37:30.333Z,3.55
2019-02-09T22:39:34.481Z,3.10
2019-02-09T22:41:48.778Z,3.80
2019-02-09T22:43:46.596Z,3.08
2019-02-09T22:45:50.702Z,4.00
2019-02-09T22:47:56.035Z,3.95
2019-02-09T22:50:00.189Z,5.17
2019-02-09T22:52:04.000Z,4.17
2019-02-09T22:54:10.216Z,4.70
2019-02-09T22:56:14.032Z,3.00
2019-02-09T22:58:18.234Z,3.15
2019-02-09T23:00:27.056Z,3.60
2019-02-09T23:02:31.059Z,3.47
2019-02-09T23:04:38.242Z,3.60
2019-02-09T23:06:52.691Z,3.83
2019-02-09T23:08:55.737Z,3.92
2019-02-09T23:10:59.584Z,3.33
2019-02-09T23:13:03.697Z,3.65
2019-02-09T23:15:09.340Z,3.55
2019-02-09T23:17:14.037Z,3.12
2019-02-09T23:19:18.172Z,4.03
2019-02-09T23:21:23.821Z,2.55
2019-02-09T23:23:27.653Z,3.40
2019-02-09T23:25:31.850Z,3.12
2019-02-09T23:27:36.045Z,2.90
2019-02-09T23:29:39.876Z,4.40
2019-02-09T23:31:43.691Z,3.08
2019-02-09T23:33:47.534Z,3.85
2019-02-09T23:35:51.682Z,4.75
2019-02-09T23:37:55.493Z,3.72
2019-02-09T23:39:59.332Z,4.37
2019-02-09T23:42:06.263Z,3.98
2019-02-09T23:44:10.341Z,3.58
2019-02-09T23:46:14.485Z,3.70
2019-02-09T23:48:19.923Z,3.55
2019-02-09T23:50:24.028Z,3.50
2019-02-09T23:52:28.259Z,3.58
2019-02-09T23:54:32.459Z,3.65
2019-02-09T23:56:36.564Z,2.87
2019-02-09T23:58:40.784Z,2.92
